• Join FlightAware (Why Join?)
  • Login
  • US Flag 
02:49AM EDT


 

Airport Tracker/Info


-or-


 

Live Flight TrackerFlight Track Log ✈ DAL1205 ✈ 14-Apr-2013 ✈ KATL - KBNA

Flight Track Log - Related Links

Times and Time Zones

All times are in EDT time to prevent confusion due to time zone crossing. See the DAL1205 flight status page for this flight to view local times or setup timezone preferences in your user account.

Time Position Orientation Groundspeed Altitude Reporting Facility
EDT Latitude Longitude Course Direction KTS MPH feet Rate Location/Type
07:17PM 33.6500 -84.4000 90° East 146 168 2,500  Level Atlanta TRACON
07:18PM 33.6500 -84.3167 90° East 244 281 4,800 2,580 Climbing Atlanta TRACON
07:19PM 33.6667 -84.2333 76° East 280 322 7,800 2,580 Climbing Atlanta TRACON
07:20PM 33.7500 -84.1667 34° Northeast 329 379 10,000 780 Climbing Atlanta TRACON
07:21PM 33.9089 -84.2467 337° Northwest 374 430 10,100 1,080 Climbing Atlanta Center
07:22PM 33.9756 -84.3419 310° West 369 425 13,200 2,700 Climbing Atlanta Center
07:23PM 34.0233 -84.4397 301° West 369 425 15,500 2,820 Climbing Atlanta Center
07:24PM 34.1125 -84.5456 316° Northwest 389 448 18,900 2,760 Climbing Atlanta Center
07:25PM 34.1936 -84.6389 316° Northwest 403 464 21,100 2,820 Climbing Atlanta Center
07:26PM 34.2767 -84.7250 319° Northwest 401 461 24,600 2,400 Climbing Atlanta Center
07:27PM 34.3658 -84.7964 327° Northwest 382 440 26,000 660 Climbing Atlanta Center
07:28PM 34.4636 -84.8703 328° Northwest 401 461 26,000  Level Atlanta Center
07:29PM 34.5736 -84.9494 329° Northwest 438 504 26,000  Level Atlanta Center
07:31PM 34.7558 -85.0944 327° Northwest 474 545 26,000  Level Memphis Center
07:32PM 34.8681 -85.1811 328° Northwest 455 524 26,000  Level Memphis Center
07:33PM 34.9714 -85.2583 329° Northwest 443 510 26,000 -180 Level Memphis Center
07:34PM 35.0747 -85.3411 327° Northwest 443 510 25,700 -900 Descending Memphis Center
07:35PM 35.1719 -85.4242 325° Northwest 437 503 24,200 -1,200 Descending Memphis Center
07:36PM 35.2511 -85.5236 314° West 419 482 23,300 -900 Descending Memphis Center
07:37PM 35.3300 -85.6233 314° West 413 475 22,500 -1,740 Descending Memphis Center
07:38PM 35.4067 -85.7208 314° West 408 470 19,900 -2,340 Descending Memphis Center
07:39PM 35.4792 -85.8189 312° West 403 464 17,900 -2,400 Descending Memphis Center
07:40PM 35.5533 -85.9092 315° West 388 447 15,200 -2,100 Descending Memphis Center
07:41PM 35.6061 -85.9831 311° West 378 435 13,700 -2,100 Descending Memphis Center
07:42PM 35.6781 -86.0789 313° West 361 415 11,100 -1,800 Descending Memphis Center
07:43PM 35.7372 -86.1603 312° West 333 383 10,200 -1,260 Descending Memphis Center
07:44PM 35.7894 -86.2292 313° West 292 336 8,600 -1,320 Descending Memphis Center
07:46PM 35.9167 -86.4000 313° West 318 366 6,000 -900 Descending Nashville TRACON
07:47PM 35.9703 -86.4689 314° West 309 356 6,000  Level Memphis Center
07:48PM 36.0292 -86.5481 313° West 309 356 6,000 -480 Level Memphis Center
07:49PM 36.1014 -86.5886 336° Northwest 282 325 5,100 -1,200 Descending Memphis Center
07:50PM 36.1603 -86.5447 31° Northeast 225 259 3,600 -960 Descending Memphis Center
07:51PM 36.2147 -86.5472 358° North 213 245 3,200 -840 Descending Memphis Center
07:52PM 36.2083 -86.6119 263° West 137 158 2,000 -840 Descending Memphis Center
07:53PM 36.1800 -86.6414 220° Southwest 126 145 1,600 -600 Descending Memphis Center
07:54PM 36.1428 -86.6533 195° South 135 155 800 -840 Descending Memphis Center
07:56PM 36.1245 -86.6782 349° North  Level Estimated
08:03PM 36.1245 -86.6782 349° North  Level Estimated
08:04PM 36.1245 -86.6782 349° North  Level Estimated